Pickensville, Alabama
Current Conditions -  °F | °C
As of 10:53 AM on Sunday 23 Nov 2014 (Local Time) from KTCL Reporting Station
Light Rain Light Rain  
Wind Chill: 64°   Ceiling: 700
Heat Index: 64°   Visibility: 8mi
Dew Point: 62°   Wind: 8mph
Humidity: 93%   Direction: 130°SE
Pressure: 29.66"   Gusts: NA
Location:  33.2267°N, 88.064°W
Report Text: KTCL 231653Z 13007KT 8SM -RA OVC007 18/17 A2966 RMK AO2 RAB04 PRESFR SLP043 P0002 T01780167
Loading
Personal Weather Stations






























Interactive Weather Map New forecast layout! Learn more

10-Day Weather Forecast

Advertisements
Track Severe Weather on mobile